Hammond, Texas
Current Conditions -  °F | °C
As of 7:15 PM on Saturday 25 Oct 2014 (Local Time) from KLHB Reporting Station
Haze Haze  
Wind Chill: 76°   Ceiling: Unl
Heat Index: 78°   Visibility: 4mi
Dew Point: 63°   Wind: 0mph
Humidity: 62%   Direction: NA
Pressure: 30.09"   Gusts: NA
Location:  31.1274°N, 96.6627°W
Report Text: KLHB 260015Z AUTO 00000KT 4SM HZ CLR 25/17 A3009 RMK AO2 T02470171
Loading
Personal Weather Stations






























Interactive Weather Map
Tropical Storm Tracking
New forecast layout! Learn more

10-Day Weather Forecast

Advertisements
Track Severe Weather on mobile